AirNav   TITAN Aviation Fuels
 
 1145 users online  

3VA8 Garner Airport
Windsor, Virginia, USA

GOING TO WINDSOR?


FAA INFORMATION EFFECTIVE 22 APRIL 2021

Location

FAA Identifier: 3VA8
Lat/Long: 36-51-22.5370N 076-40-55.8410W
36-51.375617N 076-40.930683W
36.8562603,-76.6821781
(estimated)
Elevation: 80 ft. / 24.4 m (surveyed)
Variation: 09W (1985)
From city: 5 miles NE of WINDSOR, VA
Time zone: UTC -4 (UTC -5 during Standard Time)
Zip code: 23487

Airport Operations

Airport use: Private use. Permission required prior to landing
Activation date: 06/1970
Control tower: no
ARTCC: WASHINGTON CENTER
FSS: LEESBURG FLIGHT SERVICE STATION
Attendance: UNATNDD
Wind indicator: yes
Segmented circle: no

Airport Communications

WX AWOS-3 at SFQ (11 nm S): 119.375 (757-934-3942)
WX AWOS-3PT at PVG (12 nm E): 118.375 (757-465-2175)
WX AWOS-3PT at FKN (14 nm SW): 124.675 (757-562-8765)
WX ASOS at AKQ (17 nm NW): 128.325 (757-899-2300)
WX ASOS at PHF (19 nm NE): PHONE 757-874-3682

Nearby radio navigation aids

VOR radial/distance  VOR name  Freq  Var
FKNr071/18.0FRANKLIN VORTAC110.6009W
ORFr272/23.2NORFOLK VORTAC116.9007W
CVIr026/30.4COFIELD VORTAC114.6009W
HPWr150/35.1HOPEWELL VORTAC112.0006W
HCMr185/35.6HARCUM VORTAC108.8007W

 
NDB name  Hdg/Dist  Freq  Var  ID
WAKEFIELD127/17.127411WAKQ .- -.- --.-

Airport Services

Airframe service: NONE
Powerplant service: NONE

Runway Information

Runway N/S

Dimensions: 2600 x 75 ft. / 792 x 23 m
Surface: turf
RUNWAY N  RUNWAY S
Traffic pattern: leftleft

Airport Ownership and Management from official FAA records

Ownership: Privately-owned
Owner: TIDEWATER SOARING FOUNDATION
1400 MAQRUDER RD
SMITHFIELD, VA 23430
Phone 757-357-2360
Manager: WILLIAM E. LAINE, JR
1400 MAQRUDER RD
SMITHFIELD, VA 23430
Phone 757-357-2360
WEEKENDS ONLY.

Airport Operational Statistics

Aircraft based on the field: 27
Single engine airplanes: 2
Gliders airplanes: 25
    

Additional Remarks

GLDR OPS ON WKENDS. 123.3
TO OBTAIN LNDG PMSN CALL W.E. LAINE, JR., 757-377-6174 (NIGHTS & WKENDS & DAYS).
FOR CD CTC NORFOLK APCH AT 757-464-0757.

Instrument Procedures

There are no published instrument procedures at 3VA8.

Some nearby airports with instrument procedures:

KSFQ - Suffolk Executive Airport (11 nm S)
KPVG - Hampton Roads Executive Airport (12 nm E)
KFKN - Franklin Regional Airport (14 nm SW)
KFAF - Felker Army Airfield (17 nm N)
KAKQ - Wakefield Municipal Airport (17 nm NW)
KPHF - Newport News/Williamsburg International Airport (19 nm NE)
KNGU - Norfolk Naval Station (Chambers Field) (19 nm E)
 
Loc | Ops | Rwys | IFR | FBO | Links
Com | Nav | Svcs | Stats | Notes
Area around 3VA8 (Garner Airport)
 
Road maps at: MapQuest Bing Google
 
Aerial photo
WARNING: Photo may not be current or correct
Aerial photo of 3VA8 (Garner Airport)
Photo taken 01-May-2018
looking west.

Do you have a better or more recent aerial photo of Garner Airport that you would like to share? If so, please send us your photo.

 
Sectional chart

 
Airport distance calculator
Flying to Garner Airport? Find the distance to fly.

From to 3VA8

Sunrise and sunset
Times for 16-May-2021
 Local
(UTC-4)
 Zulu
(UTC)
Morning civil twilight05:3009:30
Sunrise05:5909:59
Sunset20:0700:07
Evening civil twilight20:3600:36

Current date and time
Zulu (UTC)  17-May-2021 00:58:32
Local (UTC-4)  16-May-2021 20:58:32
 
METAR
KSFQ 
11nm S 
170055Z AUTO 09003KT 10SM OVC100 18/12 A3024 RMK AO2 T01820115
KPVG 
12nm E 
162356Z AUTO 07005KT 10SM OVC090 18/11 A3024 RMK AO2 SLP243 6//// T01780106 10239 20178 51006 PNO $
KFKN 
14nm SW 
170055Z AUTO 06004KT 10SM OVC090 17/10 A3023 RMK AO2 T01740102
KFAF 
16nm N 
162356Z AUTO 10005KT 10SM OVC090 19/12 A3022 RMK AO2 SLP237 T01890117 10224 20189 50003 $
KAKQ 
17nm NW 
170054Z AUTO 00000KT 10SM OVC090 17/12 A3023 RMK AO2 SLP238 T01720117
KPHF 
19nm NE 
170054Z 09007KT 10SM OVC090 17/11 A3025 RMK AO2 SLP241 T01670106
KLFI 
20nm NE 
170006Z 12009KT 10SM OVC095 18/12 A3023 RMK SLPNO
KNGU 
20nm E 
162359Z 09010KT 10SM OVC100 17/11 A3025 RMK AO2 SLP243 T01720106 10222 20172 52002 $
KCPK 
21nm SE 
170055Z AUTO 08005KT 10SM OVC110 A3024 RMK AO2
TAF
KPHF 
19nm NE 
161736Z 1618/1718 08007KT P6SM BKN150 FM170000 10004KT P6SM BKN070 FM171200 05007KT P6SM SCT050
KLFI 
20nm NE 
170100Z 1701/1807 10006KT 9999 SCT120 BKN180 QNH3019INS BECMG 1707/1708 10006KT 9999 SCT030 BKN050 QNH3012INS BECMG 1718/1719 14009KT 9999 BKN040 QNH3010INS BECMG 1805/1806 11006KT 9999 SCT050 SCT130 QNH3015INS TX22/1717Z TN12/1708Z
NOTAMs
Click for the latest NOTAMs
NOTAMs are issued by the DoD/FAA and will open in a separate window not controlled by AirNav.

 

 
 

Would you like to see your business listed on this page?

 If your business provides an interesting product or service to pilots, flight crews, aircraft, or users of the Garner Airport, you should consider listing it here.  To start the listing process, click on the button below
 
Add a business
 

Other Pages about Garner Airport

Update a link
 
Copyright © AirNav, LLC. All rights reserved. Privacy Policy  Contact